Time;durP1;ratioP1;P1;durP2;ratioP2;P2;SDS_P1;SDS_P2;PMS_P1;PMS_P2;Temp;Humidity;BMP_temperature;BMP_pressure;BME280_temperature;BME280_humidity;BME280_pressure;Samples;Min_cycle;Max_cycle;Signal;HPM_P1;HPM_P2
2024/01/06 07:59:46;;;;;;;17.90;9.77;;;3.50;99.90;;;;;;7599077;19;21096;-74
2024/01/06 08:02:19;;;;;;;15.77;9.88;;;3.50;99.90;;;;;;7579297;19;20977;-73
2024/01/06 08:04:52;;;;;;;19.23;9.73;;;3.50;99.90;;;;;;7595911;19;20018;-74
2024/01/06 08:07:25;;;;;;;18.52;11.43;;;3.60;99.90;;;;;;7582006;19;21794;-74
2024/01/06 08:09:57;;;;;;;20.30;12.50;;;3.70;99.90;;;;;;7573635;19;20024;-73
2024/01/06 08:12:30;;;;;;;19.23;12.70;;;3.70;99.90;;;;;;7600996;19;20064;-74
2024/01/06 08:15:04;;;;;;;22.13;12.50;;;3.80;99.90;;;;;;7595689;19;20684;-76
2024/01/06 08:17:38;;;;;;;20.13;12.60;;;3.90;99.90;;;;;;7611303;19;20026;-74
2024/01/06 08:20:11;;;;;;;16.02;9.65;;;3.90;99.90;;;;;;7594683;19;20014;-74
2024/01/06 08:22:43;;;;;;;15.88;10.25;;;4.00;99.90;;;;;;7607528;19;20029;-76
2024/01/06 08:25:19;;;;;;;12.05;8.63;;;4.10;99.90;;;;;;7618286;19;20018;-75
2024/01/06 08:27:51;;;;;;;14.20;8.43;;;4.20;99.90;;;;;;7586312;19;20018;-75
2024/01/06 08:30:25;;;;;;;11.60;6.68;;;4.20;99.90;;;;;;7597268;19;20021;-75
2024/01/06 08:32:59;;;;;;;9.57;6.43;;;4.20;99.90;;;;;;7596652;19;20014;-75
2024/01/06 08:35:31;;;;;;;11.45;6.55;;;4.20;99.90;;;;;;7582919;19;20014;-76
2024/01/06 08:38:04;;;;;;;9.60;6.00;;;4.20;99.90;;;;;;7580850;19;20057;-76
2024/01/06 08:40:36;;;;;;;10.85;5.57;;;4.20;99.90;;;;;;7584789;19;20018;-75
2024/01/06 08:43:12;;;;;;;10.88;5.50;;;4.20;99.90;;;;;;7570057;19;20018;-77
2024/01/06 08:45:44;;;;;;;10.93;6.43;;;4.30;99.90;;;;;;7551265;19;20062;-75
2024/01/06 08:48:18;;;;;;;11.32;5.45;;;4.30;99.90;;;;;;7575868;19;20022;-76
2024/01/06 08:50:51;;;;;;;14.52;6.32;;;4.30;99.90;;;;;;7567555;19;20022;-75
2024/01/06 08:53:23;;;;;;;9.23;6.28;;;4.30;99.90;;;;;;7578890;19;20057;-74
2024/01/06 08:55:55;;;;;;;8.52;5.28;;;4.30;99.90;;;;;;7592419;19;21108;-75
2024/01/06 08:58:29;;;;;;;9.35;4.57;;;4.40;99.90;;;;;;7582497;19;20649;-74
2024/01/06 09:01:01;;;;;;;10.60;4.70;;;4.40;99.90;;;;;;7585323;19;20010;-75
2024/01/06 09:03:34;;;;;;;6.80;3.95;;;4.50;99.90;;;;;;7576124;19;20018;-74
2024/01/06 09:06:06;;;;;;;6.95;4.20;;;4.50;99.90;;;;;;7588620;19;20025;-75
2024/01/06 09:08:38;;;;;;;7.57;4.47;;;4.50;99.90;;;;;;7592444;19;20026;-74
2024/01/06 09:11:11;;;;;;;9.63;5.28;;;4.50;99.90;;;;;;7555092;19;20693;-75
2024/01/06 09:13:43;;;;;;;10.05;4.60;;;4.60;99.90;;;;;;7546583;19;20022;-75
2024/01/06 09:16:16;;;;;;;9.47;5.07;;;4.60;99.90;;;;;;7523381;19;20470;-74
2024/01/06 09:18:49;;;;;;;8.90;4.53;;;4.50;99.90;;;;;;7545583;19;20056;-75
2024/01/06 09:21:22;;;;;;;13.02;5.22;;;4.50;99.90;;;;;;7558106;19;20021;-75
2024/01/06 09:23:54;;;;;;;9.88;6.28;;;4.50;99.90;;;;;;7567138;19;20018;-75
2024/01/06 09:26:27;;;;;;;13.93;7.07;;;4.40;99.90;;;;;;7564935;19;22001;-74
2024/01/06 09:29:00;;;;;;;11.35;7.43;;;4.40;99.90;;;;;;7574707;19;20013;-74
2024/01/06 09:31:32;;;;;;;18.88;8.38;;;4.40;99.90;;;;;;7586960;19;20033;-75
2024/01/06 09:34:08;;;;;;;12.50;8.18;;;4.40;99.90;;;;;;7579410;19;20010;-74
2024/01/06 09:36:41;;;;;;;14.30;8.15;;;4.50;99.90;;;;;;7577731;19;20021;-74
2024/01/06 09:39:13;;;;;;;11.63;6.55;;;4.40;99.90;;;;;;7580442;19;20056;-74
2024/01/06 09:41:46;;;;;;;25.93;9.53;;;4.40;99.90;;;;;;7584807;19;20686;-75
2024/01/06 09:44:18;;;;;;;15.48;8.30;;;4.30;99.90;;;;;;7576449;19;20876;-75
2024/01/06 09:46:50;;;;;;;24.92;10.15;;;4.20;99.90;;;;;;7572976;19;20108;-74
2024/01/06 09:49:24;;;;;;;17.42;8.65;;;4.20;99.90;;;;;;7572543;19;21312;-75
2024/01/06 09:52:00;;;;;;;16.23;8.88;;;4.20;99.90;;;;;;7573018;19;20014;-75
2024/01/06 09:54:37;;;;;;;24.05;9.23;;;4.20;99.90;;;;;;7576824;19;20093;-73
2024/01/06 09:57:09;;;;;;;15.68;8.32;;;4.20;99.90;;;;;;7582498;19;20018;-73
2024/01/06 09:59:44;;;;;;;19.45;7.95;;;4.30;99.90;;;;;;7579525;19;20700;-73
2024/01/06 10:02:17;;;;;;;17.33;7.38;;;4.30;99.90;;;;;;7579752;19;20589;-74
2024/01/06 10:04:49;;;;;;;14.30;6.77;;;4.30;99.90;;;;;;7579467;19;20026;-74
2024/01/06 10:07:22;;;;;;;12.97;7.77;;;4.30;99.90;;;;;;7586325;19;20007;-73
2024/01/06 10:09:56;;;;;;;15.75;7.25;;;4.30;99.90;;;;;;7581362;19;20052;-74
2024/01/06 10:12:28;;;;;;;18.85;7.10;;;4.30;99.90;;;;;;7577509;19;20885;-75
2024/01/06 10:15:04;;;;;;;15.57;6.30;;;4.30;99.90;;;;;;7580346;19;20023;-74
2024/01/06 10:17:40;;;;;;;11.25;5.78;;;4.30;99.90;;;;;;7573988;19;21025;-74
2024/01/06 10:20:15;;;;;;;19.30;6.97;;;4.20;99.90;;;;;;7581401;19;20014;-74
2024/01/06 10:22:48;;;;;;;13.88;6.60;;;4.30;99.90;;;;;;7575965;19;20021;-75
2024/01/06 10:25:24;;;;;;;15.55;7.25;;;4.30;99.90;;;;;;7584428;19;20894;-74
2024/01/06 10:28:00;;;;;;;11.02;5.65;;;4.30;99.90;;;;;;7566064;19;20741;-74
2024/01/06 10:30:33;;;;;;;15.60;6.30;;;4.30;99.90;;;;;;7566072;19;20010;-74
2024/01/06 10:33:10;;;;;;;17.35;7.07;;;4.20;99.90;;;;;;7568586;19;21779;-74
2024/01/06 10:35:43;;;;;;;11.32;7.00;;;4.30;99.90;;;;;;7600850;19;20048;-74
2024/01/06 10:38:17;;;;;;;15.05;6.45;;;4.30;99.90;;;;;;7594405;19;20026;-74
2024/01/06 10:41:07;;;;;;;27.17;7.80;;;4.30;99.90;;;;;;7574246;19;20021;-74
2024/01/06 10:43:43;;;;;;;13.52;6.25;;;4.30;99.90;;;;;;7597037;19;22101;-73
2024/01/06 10:46:18;;;;;;;15.07;7.63;;;4.20;99.90;;;;;;7571077;19;20022;-74
2024/01/06 10:48:52;;;;;;;21.10;8.43;;;4.20;99.90;;;;;;7596691;19;20014;-73
2024/01/06 10:51:26;;;;;;;19.77;10.05;;;4.20;99.90;;;;;;7612120;19;20014;-72
2024/01/06 10:54:01;;;;;;;16.42;7.90;;;4.20;99.90;;;;;;7577954;19;20303;-73
2024/01/06 10:56:38;;;;;;;22.73;9.15;;;4.30;99.90;;;;;;7582280;19;20021;-73
2024/01/06 10:59:12;;;;;;;16.05;8.23;;;4.30;99.90;;;;;;7583992;19;20215;-72
2024/01/06 11:01:45;;;;;;;;;;;4.30;99.90;;;;;;7572417;19;20488;-72
2024/01/06 11:04:19;;;;;;;15.50;8.13;;;4.30;99.90;;;;;;7575567;19;19915;-73
2024/01/06 11:06:53;;;;;;;18.80;8.43;;;4.40;99.90;;;;;;7565779;19;20210;-73
2024/01/06 11:09:33;;;;;;;20.45;8.52;;;4.40;99.90;;;;;;7568746;19;20014;-72
2024/01/06 11:12:06;;;;;;;19.58;9.52;;;4.30;99.90;;;;;;7581223;19;20026;-73
2024/01/06 11:14:38;;;;;;;12.32;7.70;;;4.30;99.90;;;;;;7545803;19;20025;-73
2024/01/06 11:17:11;;;;;;;18.63;8.70;;;4.40;99.90;;;;;;7574754;19;20362;-74
2024/01/06 11:19:45;;;;;;;19.15;9.38;;;4.50;99.90;;;;;;7562627;19;20014;-74
2024/01/06 11:22:18;;;;;;;20.52;9.00;;;4.50;99.90;;;;;;7570803;19;20114;-74
2024/01/06 11:24:52;;;;;;;16.15;7.28;;;4.40;99.90;;;;;;7585454;19;20014;-74
2024/01/06 11:27:30;;;;;;;20.13;8.63;;;4.50;99.90;;;;;;7578451;19;20787;-74
2024/01/06 11:30:06;;;;;;;15.10;8.05;;;4.50;99.90;;;;;;7597750;19;20010;-75
2024/01/06 11:32:41;;;;;;;16.65;8.80;;;4.50;99.90;;;;;;7586081;19;20019;-76
2024/01/06 11:35:15;;;;;;;19.65;8.65;;;4.50;99.90;;;;;;7590535;19;20090;-76
2024/01/06 11:37:49;;;;;;;18.63;8.40;;;4.50;99.90;;;;;;7607676;19;20014;-75
2024/01/06 11:40:21;;;;;;;16.95;7.70;;;4.50;99.90;;;;;;7590803;19;20014;-74
2024/01/06 11:43:11;;;;;;;22.35;11.30;;;4.50;99.90;;;;;;7601766;19;20302;-76
2024/01/06 11:45:44;;;;;;;25.38;11.55;;;4.30;99.90;;;;;;7603410;19;20023;-76
2024/01/06 11:48:19;;;;;;;19.80;9.75;;;4.30;99.90;;;;;;7606121;19;20026;-74
2024/01/06 11:50:56;;;;;;;20.05;9.73;;;4.40;99.90;;;;;;7616212;19;20098;-73
2024/01/06 11:53:30;;;;;;;21.40;10.20;;;4.40;99.90;;;;;;7615540;19;20055;-76
2024/01/06 11:56:02;;;;;;;28.40;11.88;;;4.40;99.90;;;;;;7622766;19;20011;-76
2024/01/06 11:58:38;;;;;;;15.55;8.90;;;4.40;99.90;;;;;;7595776;19;20106;-77
2024/01/06 12:01:13;;;;;;;22.10;10.43;;;4.50;99.90;;;;;;7608755;19;20094;-76
2024/01/06 12:03:53;;;;;;;16.10;8.32;;;4.50;99.90;;;;;;7612508;19;20054;-76
2024/01/06 12:06:25;;;;;;;22.48;10.55;;;4.60;99.90;;;;;;7557157;19;21546;-76
2024/01/06 12:09:08;;;;;;;33.88;15.38;;;4.60;99.90;;;;;;7564598;19;20854;-76
2024/01/06 12:11:41;;;;;;;21.23;10.35;;;4.60;99.90;;;;;;7574528;19;20010;-76
2024/01/06 12:14:13;;;;;;;25.92;12.23;;;4.40;99.90;;;;;;7571840;19;20037;-78
2024/01/06 12:16:47;;;;;;;20.52;9.95;;;4.40;99.90;;;;;;7580958;19;20661;-77
2024/01/06 12:19:20;;;;;;;24.50;11.77;;;4.40;99.90;;;;;;7573932;19;20046;-74
2024/01/06 12:21:52;;;;;;;20.98;10.25;;;4.50;99.90;;;;;;7558618;19;20088;-76
2024/01/06 12:24:28;;;;;;;30.48;12.70;;;4.40;99.90;;;;;;7581385;19;20018;-76
2024/01/06 12:27:01;;;;;;;30.27;14.88;;;4.40;99.90;;;;;;7564324;19;20471;-75
2024/01/06 12:29:33;;;;;;;28.63;13.80;;;4.40;99.90;;;;;;7579664;19;20051;-75
2024/01/06 12:32:07;;;;;;;23.65;13.40;;;4.30;99.90;;;;;;7557426;19;20947;-74
2024/01/06 12:34:40;;;;;;;23.42;11.75;;;4.40;99.90;;;;;;7535527;19;20109;-77
2024/01/06 12:37:14;;;;;;;25.52;12.18;;;4.40;99.90;;;;;;7575403;19;20015;-78
2024/01/06 12:39:48;;;;;;;23.80;12.15;;;4.40;99.90;;;;;;7559009;19;20010;-77
2024/01/06 12:42:23;;;;;;;21.20;9.43;;;4.50;99.90;;;;;;7566100;19;20046;-76
2024/01/06 12:44:56;;;;;;;20.83;10.68;;;4.50;99.90;;;;;;7578123;19;20117;-77
2024/01/06 12:47:29;;;;;;;16.00;8.10;;;4.40;99.90;;;;;;7535301;19;20026;-76
2024/01/06 12:50:04;;;;;;;15.83;8.77;;;4.40;99.90;;;;;;7553597;19;20301;-76
2024/01/06 12:52:37;;;;;;;15.55;8.77;;;4.30;99.90;;;;;;7549926;19;20018;-77
2024/01/06 12:55:11;;;;;;;14.80;7.30;;;4.30;99.90;;;;;;7559858;19;20010;-76
2024/01/06 12:57:44;;;;;;;12.65;7.20;;;4.20;99.90;;;;;;7568056;19;20489;-77
2024/01/06 13:00:17;;;;;;;13.73;7.95;;;4.20;99.90;;;;;;7552680;19;20006;-78
2024/01/06 13:02:50;;;;;;;16.60;8.55;;;4.10;99.90;;;;;;7572983;19;21286;-77
2024/01/06 13:05:22;;;;;;;18.45;9.02;;;4.10;99.90;;;;;;7579322;19;20383;-77
2024/01/06 13:07:55;;;;;;;20.05;9.45;;;4.00;99.90;;;;;;7550104;19;20018;-78
2024/01/06 13:10:28;;;;;;;21.60;9.80;;;4.00;99.90;;;;;;7605258;19;20022;-77
2024/01/06 13:13:01;;;;;;;16.85;7.88;;;4.00;99.90;;;;;;7572640;19;21100;-78
2024/01/06 13:15:34;;;;;;;15.80;8.07;;;4.10;99.90;;;;;;7555851;19;20022;-76
2024/01/06 13:18:07;;;;;;;18.40;8.95;;;4.10;99.90;;;;;;7584247;19;20019;-77
2024/01/06 13:20:41;;;;;;;14.23;6.38;;;4.00;99.90;;;;;;7558112;19;20460;-78
2024/01/06 13:23:14;;;;;;;;;;;3.90;99.90;;;;;;7564548;19;20046;-75
2024/01/06 13:25:46;;;;;;;20.75;8.90;;;3.90;99.90;;;;;;7573391;19;19925;-76
2024/01/06 13:28:19;;;;;;;22.57;12.10;;;4.00;99.90;;;;;;7559311;19;20296;-77
2024/01/06 13:30:51;;;;;;;14.77;8.75;;;3.90;99.90;;;;;;7585082;19;20014;-76
2024/01/06 13:33:24;;;;;;;18.63;9.25;;;3.90;99.90;;;;;;7565814;19;20014;-78
2024/01/06 13:35:57;;;;;;;18.73;10.25;;;4.00;99.90;;;;;;7560244;19;20048;-77
2024/01/06 13:38:30;;;;;;;18.88;8.93;;;4.00;99.90;;;;;;7571156;19;20031;-76
2024/01/06 13:41:03;;;;;;;16.48;8.75;;;4.00;99.90;;;;;;7531119;19;20029;-74
2024/01/06 13:43:35;;;;;;;29.77;12.97;;;4.00;99.90;;;;;;7554115;19;20018;-75
2024/01/06 13:46:08;;;;;;;23.90;13.40;;;4.00;99.90;;;;;;7539234;19;20010;-75
2024/01/06 13:48:41;;;;;;;27.03;10.50;;;4.00;99.90;;;;;;7556445;19;20015;-75
2024/01/06 13:51:15;;;;;;;20.33;10.23;;;3.90;99.90;;;;;;7556687;19;20022;-76
2024/01/06 13:53:47;;;;;;;31.27;14.95;;;4.00;99.90;;;;;;7550388;19;20052;-76
2024/01/06 13:56:20;;;;;;;30.42;13.25;;;4.00;99.90;;;;;;7562098;19;20014;-74
2024/01/06 13:58:53;;;;;;;13.20;7.65;;;4.00;99.90;;;;;;7548267;19;20399;-74
2024/01/06 14:01:26;;;;;;;23.70;9.35;;;4.00;99.90;;;;;;7540526;19;20387;-75
2024/01/06 14:03:59;;;;;;;14.68;8.63;;;4.00;99.90;;;;;;7571049;19;20017;-76
2024/01/06 14:06:33;;;;;;;20.30;10.10;;;4.00;99.90;;;;;;7536590;19;20022;-76
2024/01/06 14:09:06;;;;;;;15.95;8.32;;;4.10;99.90;;;;;;7570225;19;20015;-76
2024/01/06 14:11:38;;;;;;;19.17;9.15;;;3.90;99.90;;;;;;7563181;19;20052;-76
2024/01/06 14:14:10;;;;;;;20.52;10.63;;;4.00;99.90;;;;;;7569536;19;20563;-76
2024/01/06 14:16:47;;;;;;;16.85;8.77;;;4.00;99.90;;;;;;7576827;19;20010;-77
2024/01/06 14:19:20;;;;;;;17.00;9.20;;;4.00;99.90;;;;;;7542221;19;20937;-74
2024/01/06 14:21:54;;;;;;;21.08;10.02;;;4.00;99.90;;;;;;7543139;19;20023;-74
2024/01/06 14:24:28;;;;;;;19.63;9.55;;;4.00;99.90;;;;;;7551433;19;20011;-75
2024/01/06 14:27:01;;;;;;;16.92;9.32;;;4.00;99.90;;;;;;7550871;19;20002;-76
2024/01/06 14:29:34;;;;;;;21.05;9.52;;;3.90;99.90;;;;;;7552455;19;20820;-75
2024/01/06 14:32:08;;;;;;;17.60;9.52;;;4.00;99.90;;;;;;7560692;19;20029;-75
2024/01/06 14:34:40;;;;;;;17.58;8.90;;;3.90;99.90;;;;;;7551503;19;20589;-74
2024/01/06 14:37:14;;;;;;;20.00;9.80;;;3.90;99.90;;;;;;7582103;19;20042;-75
2024/01/06 14:39:46;;;;;;;18.35;9.60;;;3.80;99.90;;;;;;7526946;19;20015;-75
2024/01/06 14:42:21;;;;;;;20.15;10.43;;;3.90;99.90;;;;;;7551164;19;20117;-76
2024/01/06 14:44:54;;;;;;;16.38;9.43;;;3.90;99.90;;;;;;7530869;19;20415;-76
2024/01/06 14:47:26;;;;;;;20.13;10.50;;;3.90;99.90;;;;;;7543787;19;20554;-76
2024/01/06 14:49:59;;;;;;;24.90;13.50;;;3.80;99.90;;;;;;7547747;19;20006;-76
2024/01/06 14:52:33;;;;;;;23.65;12.60;;;3.80;99.90;;;;;;7526210;19;20130;-75
2024/01/06 14:55:06;;;;;;;27.57;13.93;;;3.80;99.90;;;;;;7513169;19;20840;-75
2024/01/06 14:57:39;;;;;;;21.33;12.15;;;3.80;99.90;;;;;;7533515;19;20019;-76
2024/01/06 15:00:13;;;;;;;32.75;15.45;;;3.80;99.90;;;;;;7535376;19;20048;-74
2024/01/06 15:02:46;;;;;;;34.53;14.40;;;3.80;99.90;;;;;;7555910;19;20018;-76
2024/01/06 15:05:18;;;;;;;;;;;3.80;99.90;;;;;;7565696;19;20643;-76
2024/01/06 15:07:54;;;;;;;29.30;12.93;;;3.80;99.90;;;;;;7545929;19;20084;-76
2024/01/06 15:10:29;;;;;;;24.60;12.65;;;3.80;99.90;;;;;;7554424;19;21445;-76
2024/01/06 15:13:03;;;;;;;19.00;11.07;;;3.70;99.90;;;;;;7541200;19;20496;-76
2024/01/06 15:15:35;;;;;;;16.27;10.65;;;3.60;99.90;;;;;;7552062;19;20925;-72
2024/01/06 15:18:09;;;;;;;21.92;12.27;;;3.60;99.90;;;;;;7519640;19;20010;-75
2024/01/06 15:20:43;;;;;;;21.45;11.00;;;3.50;99.90;;;;;;7520691;19;20915;-73
2024/01/06 15:23:18;;;;;;;24.58;12.18;;;3.50;99.90;;;;;;7538878;19;20017;-76
2024/01/06 15:25:51;;;;;;;20.63;10.98;;;3.50;99.90;;;;;;7553724;19;20628;-76
2024/01/06 15:28:23;;;;;;;20.05;12.05;;;3.60;99.90;;;;;;7539329;19;20102;-71
2024/01/06 15:30:58;;;;;;;21.03;12.00;;;3.60;99.90;;;;;;7524002;19;20090;-75
2024/01/06 15:33:31;;;;;;;26.77;12.93;;;3.50;99.90;;;;;;7548058;19;20279;-75
2024/01/06 15:36:04;;;;;;;17.17;11.13;;;3.50;99.90;;;;;;7543036;19;20815;-75
2024/01/06 15:38:37;;;;;;;;;;;3.40;99.90;;;;;;7524161;19;20048;-73
2024/01/06 15:41:19;;;;;;;23.17;11.75;;;3.40;99.90;;;;;;7503309;19;20454;-76
2024/01/06 15:44:02;;;;;;;38.17;18.38;;;3.30;99.90;;;;;;7554620;19;20006;-75
2024/01/06 15:46:34;;;;;;;37.42;19.30;;;3.20;99.90;;;;;;7563386;19;20014;-76
2024/01/06 15:49:07;;;;;;;38.03;18.90;;;3.20;99.90;;;;;;7541928;19;20054;-76
2024/01/06 15:51:40;;;;;;;35.05;16.20;;;3.10;99.90;;;;;;7532790;19;20619;-75
2024/01/06 15:54:12;;;;;;;42.13;20.10;;;3.00;99.90;;;;;;7509599;19;20019;-75
2024/01/06 15:56:44;;;;;;;41.05;19.90;;;3.00;99.90;;;;;;7524964;19;20309;-75
2024/01/06 15:59:17;;;;;;;58.83;25.60;;;2.90;99.90;;;;;;7550794;19;20022;-75
2024/01/06 16:01:49;;;;;;;43.03;21.08;;;2.80;99.90;;;;;;7547600;19;20379;-75
2024/01/06 16:04:22;;;;;;;61.17;27.10;;;2.80;99.90;;;;;;7560702;19;20022;-75
2024/01/06 16:06:54;;;;;;;38.45;20.73;;;2.70;99.90;;;;;;7546563;19;20023;-76
2024/01/06 16:09:27;;;;;;;55.15;24.77;;;2.60;99.90;;;;;;7533492;19;20905;-75
2024/01/06 16:12:00;;;;;;;53.75;25.05;;;2.60;99.90;;;;;;7523643;19;20018;-75
2024/01/06 16:14:37;;;;;;;49.55;25.25;;;2.50;99.90;;;;;;7515213;19;20018;-75
2024/01/06 16:17:09;;;;;;;59.50;26.20;;;2.50;99.90;;;;;;7539177;19;20014;-75
2024/01/06 16:19:41;;;;;;;72.95;29.45;;;2.50;99.90;;;;;;7550010;19;20018;-75
2024/01/06 16:22:14;;;;;;;36.37;20.27;;;2.40;99.90;;;;;;7547747;19;20018;-75
2024/01/06 16:24:49;;;;;;;62.10;26.80;;;2.40;99.90;;;;;;7559830;19;20028;-75
2024/01/06 16:27:21;;;;;;;94.88;33.20;;;2.30;99.90;;;;;;7559468;19;20014;-75
2024/01/06 16:29:54;;;;;;;65.13;29.43;;;2.30;99.90;;;;;;7557999;19;20018;-75
2024/01/06 16:32:27;;;;;;;59.25;26.42;;;2.20;99.90;;;;;;7569712;19;20018;-75
2024/01/06 16:34:59;;;;;;;40.00;20.67;;;2.20;99.90;;;;;;7557745;19;20937;-75
2024/01/06 16:37:31;;;;;;;84.87;33.90;;;2.20;99.90;;;;;;7572809;19;20021;-76
2024/01/06 16:40:05;;;;;;;63.63;29.70;;;2.20;99.90;;;;;;7564742;19;20017;-75
2024/01/06 16:42:38;;;;;;;77.25;33.50;;;2.20;99.90;;;;;;7576962;19;20029;-74
2024/01/06 16:45:11;;;;;;;51.38;26.23;;;2.10;99.90;;;;;;7561363;19;20455;-75
2024/01/06 16:47:44;;;;;;;109.25;41.00;;;2.10;99.90;;;;;;7549704;19;20026;-76
2024/01/06 16:50:16;;;;;;;107.87;50.77;;;2.10;99.90;;;;;;7561282;19;20311;-76
2024/01/06 16:52:48;;;;;;;111.85;44.00;;;2.10;99.90;;;;;;7564650;19;20018;-75
2024/01/06 16:55:21;;;;;;;112.20;42.83;;;2.10;99.90;;;;;;7569245;19;21645;-76
2024/01/06 16:57:59;;;;;;;117.73;46.50;;;2.00;99.90;;;;;;7562818;19;20320;-76
2024/01/06 17:00:32;;;;;;;96.10;43.08;;;2.00;99.90;;;;;;7578610;19;20018;-76
2024/01/06 17:03:04;;;;;;;93.80;42.42;;;1.90;99.90;;;;;;7578429;19;20056;-76
2024/01/06 17:05:37;;;;;;;89.75;38.53;;;2.00;99.90;;;;;;7578488;19;20026;-76
2024/01/06 17:08:09;;;;;;;59.28;28.85;;;2.00;99.90;;;;;;7576127;19;20605;-76
2024/01/06 17:10:41;;;;;;;71.78;32.08;;;2.00;99.90;;;;;;7576698;19;21112;-76
2024/01/06 17:13:14;;;;;;;56.22;28.35;;;2.10;99.90;;;;;;7579447;19;20010;-76
2024/01/06 17:15:46;;;;;;;118.60;40.85;;;2.10;99.90;;;;;;7553954;19;20007;-75
2024/01/06 17:18:19;;;;;;;60.83;31.15;;;2.10;99.90;;;;;;7571603;19;20048;-76
2024/01/06 17:20:51;;;;;;;69.20;32.67;;;2.10;99.90;;;;;;7567788;19;20698;-76
2024/01/06 17:23:24;;;;;;;87.80;34.63;;;2.10;99.90;;;;;;7567953;19;20923;-76
2024/01/06 17:25:57;;;;;;;117.15;41.95;;;2.10;99.90;;;;;;7578200;19;21697;-76
2024/01/06 17:28:29;;;;;;;66.72;30.58;;;2.00;99.90;;;;;;7566631;19;20014;-76
2024/01/06 17:31:02;;;;;;;59.42;28.58;;;2.00;99.90;;;;;;7563208;19;20118;-76
2024/01/06 17:33:34;;;;;;;78.22;32.10;;;2.10;99.90;;;;;;7569619;19;20015;-76
2024/01/06 17:36:06;;;;;;;84.63;35.03;;;2.10;99.90;;;;;;7568513;19;20014;-75
2024/01/06 17:38:39;;;;;;;64.00;31.30;;;2.10;99.90;;;;;;7576278;19;20022;-76
2024/01/06 17:41:11;;;;;;;86.72;36.33;;;2.00;99.90;;;;;;7570160;19;21277;-75
2024/01/06 17:43:47;;;;;;;73.38;32.08;;;2.00;99.90;;;;;;7570826;19;20020;-76
2024/01/06 17:46:21;;;;;;;98.85;38.70;;;2.10;99.90;;;;;;7557562;19;20759;-77
2024/01/06 17:48:53;;;;;;;104.13;41.28;;;2.00;99.90;;;;;;7575241;19;20025;-77
2024/01/06 17:51:29;;;;;;;92.18;39.67;;;2.00;99.90;;;;;;7576910;19;22071;-77
2024/01/06 17:54:02;;;;;;;76.95;37.25;;;2.00;99.90;;;;;;7589713;19;20010;-77
2024/01/06 17:56:34;;;;;;;97.88;40.38;;;2.00;99.90;;;;;;7586175;19;20693;-78
2024/01/06 17:59:06;;;;;;;129.77;50.58;;;2.00;99.90;;;;;;7066504;19;10000231;-77
2024/01/06 18:01:38;;;;;;;94.90;43.83;;;1.90;99.90;;;;;;7577014;19;20062;-77
2024/01/06 18:04:12;;;;;;;115.57;44.67;;;1.90;99.90;;;;;;7548795;19;20044;-77
2024/01/06 18:06:44;;;;;;;129.77;43.88;;;1.90;99.90;;;;;;7563296;19;20022;-77
2024/01/06 18:09:19;;;;;;;113.27;43.80;;;1.90;99.90;;;;;;7551734;19;20912;-77
2024/01/06 18:11:51;;;;;;;125.13;47.88;;;1.90;99.90;;;;;;7560162;19;20026;-77
2024/01/06 18:14:23;;;;;;;92.45;41.13;;;1.90;99.90;;;;;;7552680;19;20049;-77
2024/01/06 18:16:55;;;;;;;135.02;48.88;;;1.90;99.90;;;;;;7565816;19;20014;-77
2024/01/06 18:19:28;;;;;;;109.88;40.05;;;1.90;99.90;;;;;;7541196;19;20015;-77
2024/01/06 18:22:00;;;;;;;121.95;40.47;;;1.90;99.90;;;;;;7558324;19;20488;-77
2024/01/06 18:24:33;;;;;;;86.88;34.55;;;1.80;99.90;;;;;;7562876;19;20044;-78
2024/01/06 18:27:05;;;;;;;60.70;27.75;;;1.80;99.90;;;;;;7560344;19;20074;-78
2024/01/06 18:29:37;;;;;;;51.00;25.75;;;1.80;99.90;;;;;;7571860;19;20086;-78
2024/01/06 18:32:10;;;;;;;84.10;31.00;;;1.90;99.90;;;;;;7557639;19;20015;-77
2024/01/06 18:34:46;;;;;;;79.97;31.55;;;1.80;99.90;;;;;;7552294;19;20018;-78
2024/01/06 18:37:19;;;;;;;120.88;38.70;;;1.90;99.90;;;;;;7560601;19;20022;-78
2024/01/06 18:39:51;;;;;;;90.57;34.63;;;1.90;99.90;;;;;;7546797;19;21381;-75
2024/01/06 18:42:24;;;;;;;82.25;33.35;;;2.00;99.90;;;;;;7552480;19;20548;-77
2024/01/06 18:44:57;;;;;;;61.33;29.33;;;2.00;99.90;;;;;;7571062;19;20074;-76
2024/01/06 18:47:30;;;;;;;74.82;31.75;;;2.00;99.90;;;;;;7563080;19;21128;-76
2024/01/06 18:50:03;;;;;;;91.15;33.83;;;2.00;99.90;;;;;;7542653;19;20022;-76
2024/01/06 18:52:38;;;;;;;67.22;29.92;;;2.00;99.90;;;;;;7564449;19;20014;-76
2024/01/06 18:55:11;;;;;;;94.53;35.70;;;1.90;99.90;;;;;;7560303;19;20022;-76
2024/01/06 18:57:44;;;;;;;68.68;30.65;;;1.90;99.90;;;;;;7549069;19;20436;-78
2024/01/06 19:00:19;;;;;;;61.13;29.02;;;1.90;99.90;;;;;;7544392;19;20542;-76
2024/01/06 19:02:51;;;;;;;57.63;27.50;;;1.90;99.90;;;;;;7554158;19;20039;-76
2024/01/06 19:05:24;;;;;;;73.63;31.90;;;2.00;99.90;;;;;;7562026;19;20015;-78
2024/01/06 19:07:56;;;;;;;74.30;30.35;;;2.00;99.90;;;;;;7549280;19;20052;-76
2024/01/06 19:10:29;;;;;;;56.63;27.23;;;2.00;99.90;;;;;;7565993;19;20545;-75
2024/01/06 19:13:08;;;;;;;71.60;32.08;;;2.00;99.90;;;;;;7535252;19;20048;-75
2024/01/06 19:15:41;;;;;;;61.17;28.90;;;2.10;99.90;;;;;;7562046;19;20010;-75
2024/01/06 19:18:14;;;;;;;82.15;36.35;;;2.10;99.90;;;;;;7542470;19;21112;-75
2024/01/06 19:20:47;;;;;;;157.05;49.47;;;2.00;99.90;;;;;;7549910;19;20014;-77
2024/01/06 19:23:19;;;;;;;131.82;45.20;;;2.10;99.90;;;;;;7545661;19;20074;-75
2024/01/06 19:25:52;;;;;;;66.50;31.55;;;2.00;99.90;;;;;;7561501;19;20018;-75
2024/01/06 19:28:25;;;;;;;78.53;35.70;;;1.90;99.90;;;;;;7544968;19;21592;-75
2024/01/06 19:30:59;;;;;;;74.28;33.72;;;2.00;99.90;;;;;;7544791;19;20018;-74
2024/01/06 19:33:31;;;;;;;75.80;33.45;;;1.90;99.90;;;;;;7560228;19;20025;-77
2024/01/06 19:36:04;;;;;;;74.53;33.77;;;1.90;99.90;;;;;;7552916;19;20539;-75
2024/01/06 19:38:37;;;;;;;91.15;36.90;;;1.90;99.90;;;;;;7545971;19;20014;-78
2024/01/06 19:41:09;;;;;;;88.25;38.00;;;1.90;99.90;;;;;;7555789;19;21042;-75
2024/01/06 19:43:42;;;;;;;90.75;36.10;;;1.90;99.90;;;;;;7565342;19;20010;-75
2024/01/06 19:46:14;;;;;;;121.30;43.05;;;1.90;99.90;;;;;;7556108;19;20022;-76
2024/01/06 19:48:46;;;;;;;68.22;31.75;;;2.00;99.90;;;;;;7569837;19;20240;-75
2024/01/06 19:51:19;;;;;;;137.60;46.33;;;1.90;99.90;;;;;;7553386;19;20026;-74
2024/01/06 19:53:52;;;;;;;112.28;41.50;;;1.90;99.90;;;;;;7559277;19;21899;-75
2024/01/06 19:56:24;;;;;;;138.07;46.53;;;1.90;99.90;;;;;;7562215;19;20028;-76
2024/01/06 19:58:56;;;;;;;147.45;46.20;;;1.80;99.90;;;;;;7548104;19;20081;-76
2024/01/06 20:01:33;;;;;;;138.20;44.58;;;1.80;99.90;;;;;;7546357;19;20011;-75
2024/01/06 20:04:06;;;;;;;135.35;43.35;;;1.80;99.90;;;;;;7549736;19;20082;-75
2024/01/06 20:06:39;;;;;;;77.38;33.00;;;1.80;99.90;;;;;;7563748;19;20014;-76
2024/01/06 20:09:11;;;;;;;101.40;38.63;;;1.80;99.90;;;;;;7564749;19;20010;-76
2024/01/06 20:11:45;;;;;;;93.35;36.97;;;1.80;99.90;;;;;;7547711;19;20022;-78
2024/01/06 20:14:18;;;;;;;120.40;43.47;;;1.80;99.90;;;;;;7548264;19;20065;-77
2024/01/06 20:16:52;;;;;;;84.78;36.13;;;1.80;99.90;;;;;;7558524;19;20038;-75
2024/01/06 20:19:24;;;;;;;116.40;40.30;;;1.80;99.90;;;;;;7550477;19;20047;-78
2024/01/06 20:21:57;;;;;;;136.67;48.23;;;1.80;99.90;;;;;;7547744;19;20019;-76
2024/01/06 20:24:29;;;;;;;153.60;45.40;;;1.80;99.90;;;;;;7553326;19;20333;-76
2024/01/06 20:27:03;;;;;;;103.28;39.05;;;1.80;99.90;;;;;;7566973;19;20015;-75
2024/01/06 20:29:36;;;;;;;80.45;35.30;;;1.80;99.90;;;;;;7564082;19;20019;-75
2024/01/06 20:32:08;;;;;;;151.35;47.65;;;1.70;99.90;;;;;;7542857;19;20946;-75
2024/01/06 20:34:44;;;;;;;104.13;38.97;;;1.80;99.90;;;;;;7536659;19;20105;-75
2024/01/06 20:37:17;;;;;;;138.68;43.83;;;1.70;99.90;;;;;;7560949;19;20726;-75
2024/01/06 20:39:50;;;;;;;121.83;39.37;;;1.80;99.90;;;;;;7555791;19;20045;-77
2024/01/06 20:42:22;;;;;;;118.88;39.05;;;1.80;99.90;;;;;;7549034;19;20041;-77
2024/01/06 20:44:55;;;;;;;72.70;29.83;;;1.80;99.90;;;;;;7541827;19;20022;-77
2024/01/06 20:47:27;;;;;;;98.30;35.40;;;1.80;99.90;;;;;;7549444;19;20021;-74
2024/01/06 20:50:00;;;;;;;122.50;37.53;;;1.80;99.90;;;;;;7554431;19;20015;-75
2024/01/06 20:52:33;;;;;;;76.70;31.10;;;1.80;99.90;;;;;;7534659;19;20006;-76
2024/01/06 20:55:06;;;;;;;78.70;31.33;;;1.70;99.90;;;;;;7554054;19;20128;-76
2024/01/06 20:57:39;;;;;;;113.18;37.40;;;1.80;99.90;;;;;;7556257;19;20042;-76
2024/01/06 21:00:11;;;;;;;52.70;25.48;;;1.70;99.90;;;;;;7535527;19;20025;-76
2024/01/06 21:02:44;;;;;;;92.20;33.97;;;1.70;99.90;;;;;;7561945;19;20757;-76
2024/01/06 21:05:16;;;;;;;76.25;29.48;;;1.80;99.90;;;;;;7546032;19;21483;-76
2024/01/06 21:07:48;;;;;;;99.50;34.70;;;1.80;99.90;;;;;;7555216;19;20119;-76
2024/01/06 21:10:21;;;;;;;127.85;37.67;;;1.70;99.90;;;;;;7559889;19;20025;-75